Terminal Aerodrome Forecast
Issued by NWS

Home | Current Version | Previous Version | Text Only | Print | Product List | Glossary On
Versions: 1 2 3 4 5 6 7 8 9 10 11 12 13 14 15 16 17 18 19 20 21 22 23 24
000
FTUS41 KRLX 311700
TAFCKB
TAF
KCKB 311722Z 3118/0118 24006KT P6SM FEW030
     FM312300 VRB03KT P6SM BKN200
     FM011100 00000KT P6SM OVC030
     FM011300 VRB03KT 4SM -SN OVC025
     FM011400 VRB03KT 2SM -SN OVC020
     FM011700 17004KT 5SM -RA OVC020=

USA.gov is the U.S. government's official web portal to all federal, state and local government web resources and services.